sensor_id;sensor_type;location;lat;lon;timestamp;pressure;altitude;pressure_sealevel;temperature;humidity
8398;BME280;4236;54.504;9.588;2023-01-05T00:01:33;100371.44;;;7.77;100.00
8398;BME280;4236;54.504;9.588;2023-01-05T00:04:01;100364.50;;;7.76;100.00
8398;BME280;4236;54.504;9.588;2023-01-05T00:06:29;100370.81;;;7.75;100.00
8398;BME280;4236;54.504;9.588;2023-01-05T00:08:58;100376.94;;;7.75;100.00
8398;BME280;4236;54.504;9.588;2023-01-05T00:11:26;100381.22;;;7.76;100.00
8398;BME280;4236;54.504;9.588;2023-01-05T00:14:13;100369.97;;;7.74;100.00
8398;BME280;4236;54.504;9.588;2023-01-05T00:16:59;100386.72;;;7.75;100.00
8398;BME280;4236;54.504;9.588;2023-01-05T00:19:44;100381.22;;;7.76;100.00
8398;BME280;4236;54.504;9.588;2023-01-05T00:22:32;100385.53;;;7.77;100.00
8398;BME280;4236;54.504;9.588;2023-01-05T00:25:04;100391.41;;;7.73;100.00
8398;BME280;4236;54.504;9.588;2023-01-05T00:27:38;100394.69;;;7.75;100.00
8398;BME280;4236;54.504;9.588;2023-01-05T00:30:07;100398.91;;;7.69;100.00
8398;BME280;4236;54.504;9.588;2023-01-05T00:32:35;100380.13;;;7.71;100.00
8398;BME280;4236;54.504;9.588;2023-01-05T00:35:04;100390.13;;;7.69;100.00
8398;BME280;4236;54.504;9.588;2023-01-05T00:37:32;100382.00;;;7.70;100.00
8398;BME280;4236;54.504;9.588;2023-01-05T00:40:03;100376.47;;;7.72;100.00
8398;BME280;4236;54.504;9.588;2023-01-05T00:42:31;100396.53;;;7.74;100.00
8398;BME280;4236;54.504;9.588;2023-01-05T00:44:59;100401.00;;;7.74;100.00
8398;BME280;4236;54.504;9.588;2023-01-05T00:47:26;100391.03;;;7.76;100.00
8398;BME280;4236;54.504;9.588;2023-01-05T00:49:54;100405.09;;;7.76;100.00
8398;BME280;4236;54.504;9.588;2023-01-05T00:52:21;100397.16;;;7.76;100.00
8398;BME280;4236;54.504;9.588;2023-01-05T00:54:49;100400.63;;;7.77;100.00
8398;BME280;4236;54.504;9.588;2023-01-05T00:57:18;100403.09;;;7.78;100.00
8398;BME280;4236;54.504;9.588;2023-01-05T00:59:46;100412.06;;;7.77;100.00
8398;BME280;4236;54.504;9.588;2023-01-05T01:02:13;100408.41;;;7.78;100.00
8398;BME280;4236;54.504;9.588;2023-01-05T01:04:41;100417.22;;;7.79;100.00
8398;BME280;4236;54.504;9.588;2023-01-05T01:07:09;100413.72;;;7.78;100.00
8398;BME280;4236;54.504;9.588;2023-01-05T01:09:37;100409.25;;;7.79;100.00
8398;BME280;4236;54.504;9.588;2023-01-05T01:12:06;100403.94;;;7.79;100.00
8398;BME280;4236;54.504;9.588;2023-01-05T01:14:35;100406.59;;;7.79;100.00
8398;BME280;4236;54.504;9.588;2023-01-05T01:17:03;100410.25;;;7.78;100.00
8398;BME280;4236;54.504;9.588;2023-01-05T01:19:31;100413.06;;;7.76;100.00
8398;BME280;4236;54.504;9.588;2023-01-05T01:21:59;100415.72;;;7.76;100.00
8398;BME280;4236;54.504;9.588;2023-01-05T01:24:27;100424.47;;;7.70;100.00
8398;BME280;4236;54.504;9.588;2023-01-05T01:26:55;100426.28;;;7.70;100.00
8398;BME280;4236;54.504;9.588;2023-01-05T01:29:23;100422.22;;;7.74;100.00
8398;BME280;4236;54.504;9.588;2023-01-05T01:31:52;100437.38;;;7.73;100.00
8398;BME280;4236;54.504;9.588;2023-01-05T01:34:20;100429.19;;;7.75;100.00
8398;BME280;4236;54.504;9.588;2023-01-05T01:36:48;100422.22;;;7.74;100.00
8398;BME280;4236;54.504;9.588;2023-01-05T01:39:16;100434.88;;;7.72;100.00
8398;BME280;4236;54.504;9.588;2023-01-05T01:41:44;100430.41;;;7.72;100.00
8398;BME280;4236;54.504;9.588;2023-01-05T01:47:21;100435.25;;;7.69;100.00
8398;BME280;4236;54.504;9.588;2023-01-05T01:49:52;100436.69;;;7.71;100.00
8398;BME280;4236;54.504;9.588;2023-01-05T01:52:21;100421.44;;;7.73;100.00
8398;BME280;4236;54.504;9.588;2023-01-05T01:54:50;100425.53;;;7.76;100.00
8398;BME280;4236;54.504;9.588;2023-01-05T01:57:19;100451.88;;;7.77;100.00
8398;BME280;4236;54.504;9.588;2023-01-05T01:59:48;100440.91;;;7.80;100.00
8398;BME280;4236;54.504;9.588;2023-01-05T02:02:17;100437.25;;;7.82;100.00
8398;BME280;4236;54.504;9.588;2023-01-05T02:04:46;100431.94;;;7.82;100.00
8398;BME280;4236;54.504;9.588;2023-01-05T02:07:14;100444.56;;;7.79;100.00
8398;BME280;4236;54.504;9.588;2023-01-05T02:09:42;100442.28;;;7.76;100.00
8398;BME280;4236;54.504;9.588;2023-01-05T02:12:21;100445.75;;;7.77;100.00
8398;BME280;4236;54.504;9.588;2023-01-05T02:15:04;100436.31;;;7.74;100.00
8398;BME280;4236;54.504;9.588;2023-01-05T02:17:46;100446.31;;;7.72;100.00
8398;BME280;4236;54.504;9.588;2023-01-05T02:20:31;100447.31;;;7.71;100.00
8398;BME280;4236;54.504;9.588;2023-01-05T02:23:37;100438.53;;;7.71;100.00
8398;BME280;4236;54.504;9.588;2023-01-05T02:29:40;100460.13;;;7.68;100.00
8398;BME280;4236;54.504;9.588;2023-01-05T02:32:21;100463.81;;;7.67;100.00
8398;BME280;4236;54.504;9.588;2023-01-05T02:35:03;100459.50;;;7.66;100.00
8398;BME280;4236;54.504;9.588;2023-01-05T02:37:40;100452.91;;;7.62;100.00
8398;BME280;4236;54.504;9.588;2023-01-05T02:40:14;100455.13;;;7.58;100.00
8398;BME280;4236;54.504;9.588;2023-01-05T02:42:46;100462.78;;;7.53;100.00
8398;BME280;4236;54.504;9.588;2023-01-05T02:45:16;100471.69;;;7.46;100.00
8398;BME280;4236;54.504;9.588;2023-01-05T02:47:45;100468.56;;;7.42;100.00
8398;BME280;4236;54.504;9.588;2023-01-05T02:50:15;100473.50;;;7.45;100.00
8398;BME280;4236;54.504;9.588;2023-01-05T02:52:52;100469.19;;;7.44;100.00
8398;BME280;4236;54.504;9.588;2023-01-05T02:55:28;100470.66;;;7.47;100.00
8398;BME280;4236;54.504;9.588;2023-01-05T02:58:01;100467.63;;;7.50;100.00
8398;BME280;4236;54.504;9.588;2023-01-05T03:00:34;100463.00;;;7.52;100.00
8398;BME280;4236;54.504;9.588;2023-01-05T03:03:09;100474.25;;;7.54;100.00
8398;BME280;4236;54.504;9.588;2023-01-05T03:05:41;100481.19;;;7.55;100.00
8398;BME280;4236;54.504;9.588;2023-01-05T03:08:11;100479.81;;;7.59;100.00
8398;BME280;4236;54.504;9.588;2023-01-05T03:10:58;100475.34;;;7.59;100.00
8398;BME280;4236;54.504;9.588;2023-01-05T03:13:47;100475.16;;;7.61;100.00
8398;BME280;4236;54.504;9.588;2023-01-05T03:16:20;100474.13;;;7.62;100.00
8398;BME280;4236;54.504;9.588;2023-01-05T03:18:52;100473.59;;;7.66;100.00
8398;BME280;4236;54.504;9.588;2023-01-05T03:21:39;100474.44;;;7.67;100.00
8398;BME280;4236;54.504;9.588;2023-01-05T03:24:24;100471.94;;;7.65;100.00
8398;BME280;4236;54.504;9.588;2023-01-05T03:27:10;100460.97;;;7.68;100.00
8398;BME280;4236;54.504;9.588;2023-01-05T03:29:56;100487.69;;;7.67;100.00
8398;BME280;4236;54.504;9.588;2023-01-05T03:32:46;100460.97;;;7.68;100.00
8398;BME280;4236;54.504;9.588;2023-01-05T03:35:36;100471.22;;;7.71;100.00
8398;BME280;4236;54.504;9.588;2023-01-05T03:38:11;100477.97;;;7.74;100.00
8398;BME280;4236;54.504;9.588;2023-01-05T03:40:44;100469.84;;;7.75;100.00
8398;BME280;4236;54.504;9.588;2023-01-05T03:43:12;100478.63;;;7.76;100.00
8398;BME280;4236;54.504;9.588;2023-01-05T03:45:43;100475.31;;;7.74;100.00
8398;BME280;4236;54.504;9.588;2023-01-05T03:48:11;100493.72;;;7.75;100.00
8398;BME280;4236;54.504;9.588;2023-01-05T03:50:40;100490.44;;;7.73;100.00
8398;BME280;4236;54.504;9.588;2023-01-05T03:53:08;100492.91;;;7.75;100.00
8398;BME280;4236;54.504;9.588;2023-01-05T03:55:35;100509.81;;;7.74;100.00
8398;BME280;4236;54.504;9.588;2023-01-05T03:58:03;100501.69;;;7.75;100.00
8398;BME280;4236;54.504;9.588;2023-01-05T04:00:31;100514.13;;;7.75;100.00
8398;BME280;4236;54.504;9.588;2023-01-05T04:02:59;100522.09;;;7.75;100.00
8398;BME280;4236;54.504;9.588;2023-01-05T04:05:27;100512.09;;;7.77;100.00
8398;BME280;4236;54.504;9.588;2023-01-05T04:07:56;100513.31;;;7.74;100.00
8398;BME280;4236;54.504;9.588;2023-01-05T04:10:24;100508.00;;;7.74;100.00
8398;BME280;4236;54.504;9.588;2023-01-05T04:12:51;100508.81;;;7.75;100.00
8398;BME280;4236;54.504;9.588;2023-01-05T04:15:19;100514.97;;;7.75;100.00
8398;BME280;4236;54.504;9.588;2023-01-05T04:17:46;100526.41;;;7.76;100.00
8398;BME280;4236;54.504;9.588;2023-01-05T04:20:14;100523.38;;;7.79;100.00
8398;BME280;4236;54.504;9.588;2023-01-05T04:22:42;100521.53;;;7.79;100.00
8398;BME280;4236;54.504;9.588;2023-01-05T04:25:11;100544.78;;;7.77;100.00
8398;BME280;4236;54.504;9.588;2023-01-05T04:27:39;100535.00;;;7.78;100.00
8398;BME280;4236;54.504;9.588;2023-01-05T04:30:08;100543.34;;;7.75;100.00
8398;BME280;4236;54.504;9.588;2023-01-05T04:32:36;100530.88;;;7.75;100.00
8398;BME280;4236;54.504;9.588;2023-01-05T04:35:04;100536.00;;;7.77;100.00
8398;BME280;4236;54.504;9.588;2023-01-05T04:37:36;100545.00;;;7.76;100.00
8398;BME280;4236;54.504;9.588;2023-01-05T04:40:05;100545.00;;;7.76;100.00
8398;BME280;4236;54.504;9.588;2023-01-05T04:42:34;100530.88;;;7.75;100.00
8398;BME280;4236;54.504;9.588;2023-01-05T04:45:02;100546.97;;;7.74;100.00
8398;BME280;4236;54.504;9.588;2023-01-05T04:47:30;100553.94;;;7.75;100.00
8398;BME280;4236;54.504;9.588;2023-01-05T04:49:58;100546.63;;;7.77;100.00
8398;BME280;4236;54.504;9.588;2023-01-05T04:52:26;100533.34;;;7.77;100.00
8398;BME280;4236;54.504;9.588;2023-01-05T04:54:54;100530.53;;;7.78;100.00
8398;BME280;4236;54.504;9.588;2023-01-05T04:57:21;100558.25;;;7.76;100.00
8398;BME280;4236;54.504;9.588;2023-01-05T04:59:50;100549.47;;;7.75;100.00
8398;BME280;4236;54.504;9.588;2023-01-05T05:02:18;100543.53;;;7.73;100.00
8398;BME280;4236;54.504;9.588;2023-01-05T05:04:45;100557.81;;;7.72;100.00
8398;BME280;4236;54.504;9.588;2023-01-05T05:07:14;100561.66;;;7.70;100.00
8398;BME280;4236;54.504;9.588;2023-01-05T05:09:41;100561.44;;;7.71;100.00
8398;BME280;4236;54.504;9.588;2023-01-05T05:12:09;100559.81;;;7.70;100.00
8398;BME280;4236;54.504;9.588;2023-01-05T05:14:37;100559.16;;;7.68;100.00
8398;BME280;4236;54.504;9.588;2023-01-05T05:17:06;100568.59;;;7.71;100.00
8398;BME280;4236;54.504;9.588;2023-01-05T05:19:33;100531.41;;;7.71;100.00
8398;BME280;4236;54.504;9.588;2023-01-05T05:22:01;100573.53;;;7.74;100.00
8398;BME280;4236;54.504;9.588;2023-01-05T05:24:29;100578.66;;;7.75;100.00
8398;BME280;4236;54.504;9.588;2023-01-05T05:26:56;100571.34;;;7.77;100.00
8398;BME280;4236;54.504;9.588;2023-01-05T05:29:24;100585.16;;;7.73;100.00
8398;BME280;4236;54.504;9.588;2023-01-05T05:31:52;100602.72;;;7.74;100.00
8398;BME280;4236;54.504;9.588;2023-01-05T05:34:21;100601.94;;;7.73;100.00
8398;BME280;4236;54.504;9.588;2023-01-05T05:36:49;100602.56;;;7.75;100.00
8398;BME280;4236;54.504;9.588;2023-01-05T05:39:17;100605.38;;;7.74;100.00
8398;BME280;4236;54.504;9.588;2023-01-05T05:41:44;100603.75;;;7.73;100.00
8398;BME280;4236;54.504;9.588;2023-01-05T05:44:12;100614.00;;;7.76;100.00
8398;BME280;4236;54.504;9.588;2023-01-05T05:46:40;100612.34;;;7.75;100.00
8398;BME280;4236;54.504;9.588;2023-01-05T05:49:07;100621.97;;;7.76;100.00
8398;BME280;4236;54.504;9.588;2023-01-05T05:51:36;100614.16;;;7.74;100.00
8398;BME280;4236;54.504;9.588;2023-01-05T05:54:04;100627.44;;;7.74;100.00
8398;BME280;4236;54.504;9.588;2023-01-05T05:56:32;100634.41;;;7.75;100.00
8398;BME280;4236;54.504;9.588;2023-01-05T05:59:00;100641.91;;;7.72;100.00
8398;BME280;4236;54.504;9.588;2023-01-05T06:01:27;100643.72;;;7.71;100.00
8398;BME280;4236;54.504;9.588;2023-01-05T06:03:55;100637.94;;;7.68;100.00
8398;BME280;4236;54.504;9.588;2023-01-05T06:06:23;100641.63;;;7.67;100.00
8398;BME280;4236;54.504;9.588;2023-01-05T06:08:52;100644.19;;;7.60;100.00
8398;BME280;4236;54.504;9.588;2023-01-05T06:11:19;100629.69;;;7.48;100.00
8398;BME280;4236;54.504;9.588;2023-01-05T06:13:47;100687.09;;;7.41;100.00
8398;BME280;4236;54.504;9.588;2023-01-05T06:16:15;100687.19;;;7.33;100.00
8398;BME280;4236;54.504;9.588;2023-01-05T06:18:43;100713.56;;;7.27;100.00
8398;BME280;4236;54.504;9.588;2023-01-05T06:21:11;100717.94;;;7.19;100.00
8398;BME280;4236;54.504;9.588;2023-01-05T06:23:38;100708.94;;;6.98;100.00
8398;BME280;4236;54.504;9.588;2023-01-05T06:26:07;100737.69;;;6.86;100.00
8398;BME280;4236;54.504;9.588;2023-01-05T06:28:35;100724.66;;;6.68;100.00
8398;BME280;4236;54.504;9.588;2023-01-05T06:31:03;100759.47;;;6.57;100.00
8398;BME280;4236;54.504;9.588;2023-01-05T06:33:31;100755.53;;;6.45;100.00
8398;BME280;4236;54.504;9.588;2023-01-05T06:35:58;100764.47;;;6.36;100.00
8398;BME280;4236;54.504;9.588;2023-01-05T06:38:26;100757.22;;;6.22;100.00
8398;BME280;4236;54.504;9.588;2023-01-05T06:40:54;100786.38;;;6.06;100.00
8398;BME280;4236;54.504;9.588;2023-01-05T06:43:24;100795.66;;;5.94;100.00
8398;BME280;4236;54.504;9.588;2023-01-05T06:45:52;100806.84;;;5.80;100.00
8398;BME280;4236;54.504;9.588;2023-01-05T06:48:20;100803.34;;;5.55;100.00
8398;BME280;4236;54.504;9.588;2023-01-05T06:50:47;100832.41;;;5.47;100.00
8398;BME280;4236;54.504;9.588;2023-01-05T06:53:15;100829.88;;;5.29;100.00
8398;BME280;4236;54.504;9.588;2023-01-05T06:55:43;100851.50;;;5.17;100.00
8398;BME280;4236;54.504;9.588;2023-01-05T06:58:11;100853.63;;;5.13;100.00
8398;BME280;4236;54.504;9.588;2023-01-05T07:00:40;100875.22;;;5.09;100.00
8398;BME280;4236;54.504;9.588;2023-01-05T07:03:10;100858.06;;;5.05;100.00
8398;BME280;4236;54.504;9.588;2023-01-05T07:05:38;100875.88;;;5.02;100.00
8398;BME280;4236;54.504;9.588;2023-01-05T07:08:06;100875.50;;;4.97;100.00
8398;BME280;4236;54.504;9.588;2023-01-05T07:10:34;100895.09;;;4.87;100.00
8398;BME280;4236;54.504;9.588;2023-01-05T07:13:02;100902.53;;;4.83;100.00
8398;BME280;4236;54.504;9.588;2023-01-05T07:15:30;100904.13;;;4.76;100.00
8398;BME280;4236;54.504;9.588;2023-01-05T07:17:59;100913.63;;;4.69;100.00
8398;BME280;4236;54.504;9.588;2023-01-05T07:20:27;100916.22;;;4.61;100.00
8398;BME280;4236;54.504;9.588;2023-01-05T07:22:54;100955.63;;;4.55;100.00
8398;BME280;4236;54.504;9.588;2023-01-05T07:25:22;100920.75;;;4.51;100.00
8398;BME280;4236;54.504;9.588;2023-01-05T07:27:50;100947.63;;;4.46;100.00
8398;BME280;4236;54.504;9.588;2023-01-05T07:30:18;100955.34;;;4.40;100.00
8398;BME280;4236;54.504;9.588;2023-01-05T07:32:46;100954.97;;;4.35;100.00
8398;BME280;4236;54.504;9.588;2023-01-05T07:35:15;100942.69;;;4.26;100.00
8398;BME280;4236;54.504;9.588;2023-01-05T07:37:42;100987.38;;;4.27;100.00
8398;BME280;4236;54.504;9.588;2023-01-05T07:40:11;100972.53;;;4.26;100.00
8398;BME280;4236;54.504;9.588;2023-01-05T07:42:39;100994.81;;;4.24;100.00
8398;BME280;4236;54.504;9.588;2023-01-05T07:45:07;101018.31;;;4.17;100.00
8398;BME280;4236;54.504;9.588;2023-01-05T07:47:37;101019.44;;;4.15;100.00
8398;BME280;4236;54.504;9.588;2023-01-05T07:50:06;101039.84;;;4.13;100.00
8398;BME280;4236;54.504;9.588;2023-01-05T07:52:35;101040.03;;;4.11;100.00
8398;BME280;4236;54.504;9.588;2023-01-05T07:55:04;101050.56;;;4.11;100.00
8398;BME280;4236;54.504;9.588;2023-01-05T07:57:32;101039.31;;;4.09;100.00
8398;BME280;4236;54.504;9.588;2023-01-05T08:00:00;101057.28;;;4.06;100.00
8398;BME280;4236;54.504;9.588;2023-01-05T08:02:28;101056.28;;;4.07;100.00
8398;BME280;4236;54.504;9.588;2023-01-05T08:05:01;101061.56;;;4.07;100.00
8398;BME280;4236;54.504;9.588;2023-01-05T08:07:29;101063.91;;;4.10;100.00
8398;BME280;4236;54.504;9.588;2023-01-05T08:09:58;101070.47;;;4.06;100.00
8398;BME280;4236;54.504;9.588;2023-01-05T08:12:43;101090.59;;;4.07;100.00
8398;BME280;4236;54.504;9.588;2023-01-05T08:15:29;101101.16;;;4.07;100.00
8398;BME280;4236;54.504;9.588;2023-01-05T08:17:57;101103.94;;;4.05;100.00
8398;BME280;4236;54.504;9.588;2023-01-05T08:20:24;101104.78;;;4.06;100.00
8398;BME280;4236;54.504;9.588;2023-01-05T08:22:52;101117.13;;;4.05;100.00
8398;BME280;4236;54.504;9.588;2023-01-05T08:25:21;101120.06;;;4.02;100.00
8398;BME280;4236;54.504;9.588;2023-01-05T08:27:49;101120.06;;;4.02;100.00
8398;BME280;4236;54.504;9.588;2023-01-05T08:30:17;101138.53;;;4.02;100.00
8398;BME280;4236;54.504;9.588;2023-01-05T08:32:45;101137.25;;;4.06;100.00
8398;BME280;4236;54.504;9.588;2023-01-05T08:35:12;101138.66;;;4.01;100.00
8398;BME280;4236;54.504;9.588;2023-01-05T08:37:42;101134.09;;;4.03;100.00
8398;BME280;4236;54.504;9.588;2023-01-05T08:40:11;101148.34;;;4.10;100.00
8398;BME280;4236;54.504;9.588;2023-01-05T08:42:40;101156.00;;;4.13;100.00
8398;BME280;4236;54.504;9.588;2023-01-05T08:45:08;101168.06;;;4.15;100.00
8398;BME280;4236;54.504;9.588;2023-01-05T08:47:36;101181.38;;;4.23;100.00
8398;BME280;4236;54.504;9.588;2023-01-05T08:50:04;101174.97;;;4.26;100.00
8398;BME280;4236;54.504;9.588;2023-01-05T08:52:32;101185.25;;;4.29;100.00
8398;BME280;4236;54.504;9.588;2023-01-05T08:55:00;101188.28;;;4.34;100.00
8398;BME280;4236;54.504;9.588;2023-01-05T08:57:29;101199.53;;;4.36;100.00
8398;BME280;4236;54.504;9.588;2023-01-05T08:59:58;101208.53;;;4.43;100.00
8398;BME280;4236;54.504;9.588;2023-01-05T09:02:26;101215.03;;;4.48;100.00
8398;BME280;4236;54.504;9.588;2023-01-05T09:04:53;101217.13;;;4.45;100.00
8398;BME280;4236;54.504;9.588;2023-01-05T09:07:21;101219.91;;;4.53;100.00
8398;BME280;4236;54.504;9.588;2023-01-05T09:09:49;101231.28;;;4.54;100.00
8398;BME280;4236;54.504;9.588;2023-01-05T09:12:17;101231.28;;;4.54;100.00
8398;BME280;4236;54.504;9.588;2023-01-05T09:14:45;101228.78;;;4.52;100.00
8398;BME280;4236;54.504;9.588;2023-01-05T09:17:14;101239.25;;;4.44;100.00
8398;BME280;4236;54.504;9.588;2023-01-05T09:19:41;101253.81;;;4.48;100.00
8398;BME280;4236;54.504;9.588;2023-01-05T09:22:09;101263.78;;;4.54;100.00
8398;BME280;4236;54.504;9.588;2023-01-05T09:24:36;101263.28;;;4.51;100.00
8398;BME280;4236;54.504;9.588;2023-01-05T09:27:04;101269.25;;;4.53;100.00
8398;BME280;4236;54.504;9.588;2023-01-05T09:29:33;101276.88;;;4.56;100.00
8398;BME280;4236;54.504;9.588;2023-01-05T09:32:00;101282.25;;;4.64;100.00
8398;BME280;4236;54.504;9.588;2023-01-05T09:34:29;101289.75;;;4.68;100.00
8398;BME280;4236;54.504;9.588;2023-01-05T09:36:58;101293.09;;;4.70;100.00
8398;BME280;4236;54.504;9.588;2023-01-05T09:39:26;101304.88;;;4.76;100.00
8398;BME280;4236;54.504;9.588;2023-01-05T09:41:55;101307.09;;;4.80;100.00
8398;BME280;4236;54.504;9.588;2023-01-05T09:44:29;101322.38;;;4.86;100.00
8398;BME280;4236;54.504;9.588;2023-01-05T09:47:01;101320.41;;;4.88;100.00
8398;BME280;4236;54.504;9.588;2023-01-05T09:49:32;101329.66;;;5.02;100.00
8398;BME280;4236;54.504;9.588;2023-01-05T09:52:02;101330.06;;;5.07;100.00
8398;BME280;4236;54.504;9.588;2023-01-05T09:54:35;101336.69;;;5.11;100.00
8398;BME280;4236;54.504;9.588;2023-01-05T09:57:06;101337.84;;;5.09;100.00
8398;BME280;4236;54.504;9.588;2023-01-05T09:59:41;101335.63;;;5.04;100.00
8398;BME280;4236;54.504;9.588;2023-01-05T10:02:17;101331.88;;;5.07;100.00
8398;BME280;4236;54.504;9.588;2023-01-05T10:04:48;101337.69;;;5.10;100.00
8398;BME280;4236;54.504;9.588;2023-01-05T10:07:22;101340.47;;;5.09;100.00
8398;BME280;4236;54.504;9.588;2023-01-05T10:09:54;101350.84;;;5.20;100.00
8398;BME280;4236;54.504;9.588;2023-01-05T10:12:26;101349.19;;;5.19;100.00
8398;BME280;4236;54.504;9.588;2023-01-05T10:15:16;101348.38;;;5.18;100.00
8398;BME280;4236;54.504;9.588;2023-01-05T10:17:46;101362.03;;;5.14;100.00
8398;BME280;4236;54.504;9.588;2023-01-05T10:20:17;101367.16;;;5.15;100.00
8398;BME280;4236;54.504;9.588;2023-01-05T10:22:53;101369.06;;;5.23;100.00
8398;BME280;4236;54.504;9.588;2023-01-05T10:25:29;101367.41;;;5.22;100.00
8398;BME280;4236;54.504;9.588;2023-01-05T10:28:24;101379.34;;;5.26;100.00
8398;BME280;4236;54.504;9.588;2023-01-05T10:30:56;101377.78;;;5.33;100.00
8398;BME280;4236;54.504;9.588;2023-01-05T10:33:40;101369.72;;;5.34;100.00
8398;BME280;4236;54.504;9.588;2023-01-05T10:36:34;101387.44;;;5.24;100.00
8398;BME280;4236;54.504;9.588;2023-01-05T10:42:36;101386.69;;;5.32;100.00
8398;BME280;4236;54.504;9.588;2023-01-05T10:45:09;101381.06;;;5.44;100.00
8398;BME280;4236;54.504;9.588;2023-01-05T10:47:38;101402.09;;;5.46;100.00
8398;BME280;4236;54.504;9.588;2023-01-05T10:50:34;101413.22;;;5.49;100.00
8398;BME280;4236;54.504;9.588;2023-01-05T10:53:08;101414.03;;;5.50;100.00
8398;BME280;4236;54.504;9.588;2023-01-05T10:55:53;101412.09;;;5.52;100.00
8398;BME280;4236;54.504;9.588;2023-01-05T10:58:25;101427.53;;;5.47;100.00
8398;BME280;4236;54.504;9.588;2023-01-05T11:00:55;101419.59;;;5.47;100.00
8398;BME280;4236;54.504;9.588;2023-01-05T11:03:28;101423.06;;;5.57;100.00
8398;BME280;4236;54.504;9.588;2023-01-05T11:06:21;101437.19;;;5.66;100.00
8398;BME280;4236;54.504;9.588;2023-01-05T11:08:51;101433.28;;;5.70;100.00
8398;BME280;4236;54.504;9.588;2023-01-05T11:11:20;101442.78;;;5.63;100.00
8398;BME280;4236;54.504;9.588;2023-01-05T11:13:52;101449.16;;;5.70;100.00
8398;BME280;4236;54.504;9.588;2023-01-05T11:16:22;101460.09;;;5.57;100.00
8398;BME280;4236;54.504;9.588;2023-01-05T11:18:53;101456.19;;;5.61;100.00
8398;BME280;4236;54.504;9.588;2023-01-05T11:21:22;101455.06;;;5.64;100.00
8398;BME280;4236;54.504;9.588;2023-01-05T11:23:53;101464.13;;;5.61;100.00
8398;BME280;4236;54.504;9.588;2023-01-05T11:26:29;101457.00;;;5.62;100.00
8398;BME280;4236;54.504;9.588;2023-01-05T11:29:03;101470.19;;;5.71;100.00
8398;BME280;4236;54.504;9.588;2023-01-05T11:31:39;101476.91;;;5.66;100.00
8398;BME280;4236;54.504;9.588;2023-01-05T11:34:17;101470.63;;;5.67;100.00
8398;BME280;4236;54.504;9.588;2023-01-05T11:36:50;101480.50;;;5.65;100.00
8398;BME280;4236;54.504;9.588;2023-01-05T11:39:25;101478.16;;;5.62;100.00
8398;BME280;4236;54.504;9.588;2023-01-05T11:42:06;101479.69;;;5.64;100.00
8398;BME280;4236;54.504;9.588;2023-01-05T11:44:35;101484.03;;;5.55;100.00
8398;BME280;4236;54.504;9.588;2023-01-05T11:47:05;101484.44;;;5.61;100.00
8398;BME280;4236;54.504;9.588;2023-01-05T11:49:34;101499.47;;;5.60;100.00
8398;BME280;4236;54.504;9.588;2023-01-05T11:52:02;101491.25;;;5.63;100.00
8398;BME280;4236;54.504;9.588;2023-01-05T11:54:35;101508.16;;;5.52;100.00
8398;BME280;4236;54.504;9.588;2023-01-05T11:57:16;101505.53;;;5.52;100.00
8398;BME280;4236;54.504;9.588;2023-01-05T11:59:45;101513.97;;;5.56;100.00
8398;BME280;4236;54.504;9.588;2023-01-05T12:02:40;101511.88;;;5.59;100.00
8398;BME280;4236;54.504;9.588;2023-01-05T12:05:23;101519.91;;;5.68;100.00
8398;BME280;4236;54.504;9.588;2023-01-05T12:07:55;101515.88;;;5.73;100.00
8398;BME280;4236;54.504;9.588;2023-01-05T12:10:40;101523.91;;;5.81;100.00
8398;BME280;4236;54.504;9.588;2023-01-05T12:16:14;101522.91;;;5.92;100.00
8398;BME280;4236;54.504;9.588;2023-01-05T12:19:02;101525.41;;;5.93;100.00
8398;BME280;4236;54.504;9.588;2023-01-05T12:21:36;101518.06;;;5.87;100.00
8398;BME280;4236;54.504;9.588;2023-01-05T12:24:28;101524.41;;;5.94;100.00
8398;BME280;4236;54.504;9.588;2023-01-05T12:27:13;101525.03;;;5.88;100.00
8398;BME280;4236;54.504;9.588;2023-01-05T12:29:53;101521.03;;;6.02;100.00
8398;BME280;4236;54.504;9.588;2023-01-05T12:32:55;101531.34;;;6.05;100.00
8398;BME280;4236;54.504;9.588;2023-01-05T12:36:10;101544.41;;;6.06;100.00
8398;BME280;4236;54.504;9.588;2023-01-05T12:38:46;101529.06;;;6.10;100.00
8398;BME280;4236;54.504;9.588;2023-01-05T12:41:37;101521.28;;;6.08;100.00
8398;BME280;4236;54.504;9.588;2023-01-05T12:44:30;101521.38;;;5.89;100.00
8398;BME280;4236;54.504;9.588;2023-01-05T12:47:18;101529.41;;;5.97;100.00
8398;BME280;4236;54.504;9.588;2023-01-05T12:49:56;101533.47;;;5.92;100.00
8398;BME280;4236;54.504;9.588;2023-01-05T12:52:27;101537.94;;;5.91;100.00
8398;BME280;4236;54.504;9.588;2023-01-05T12:55:01;101531.00;;;5.90;100.00
8398;BME280;4236;54.504;9.588;2023-01-05T12:57:34;101536.59;;;5.87;100.00
8398;BME280;4236;54.504;9.588;2023-01-05T13:00:07;101537.81;;;5.93;100.00
8398;BME280;4236;54.504;9.588;2023-01-05T13:02:39;101540.59;;;5.91;100.00
8398;BME280;4236;54.504;9.588;2023-01-05T13:05:16;101541.31;;;5.84;100.00
8398;BME280;4236;54.504;9.588;2023-01-05T13:07:49;101540.91;;;5.88;100.00
8398;BME280;4236;54.504;9.588;2023-01-05T13:10:20;101549.81;;;5.87;100.00
8398;BME280;4236;54.504;9.588;2023-01-05T13:12:53;101558.69;;;5.96;100.00
8398;BME280;4236;54.504;9.588;2023-01-05T13:15:26;101559.81;;;5.93;100.00
8398;BME280;4236;54.504;9.588;2023-01-05T13:17:57;101562.91;;;5.89;100.00
8398;BME280;4236;54.504;9.588;2023-01-05T13:20:34;101558.31;;;5.91;100.00
8398;BME280;4236;54.504;9.588;2023-01-05T13:23:06;101569.41;;;5.94;100.00
8398;BME280;4236;54.504;9.588;2023-01-05T13:25:45;101556.16;;;5.94;100.00
8398;BME280;4236;54.504;9.588;2023-01-05T13:28:20;101569.44;;;5.85;100.00
8398;BME280;4236;54.504;9.588;2023-01-05T13:31:14;101566.81;;;5.85;100.00
8398;BME280;4236;54.504;9.588;2023-01-05T13:33:59;101568.06;;;5.81;100.00
8398;BME280;4236;54.504;9.588;2023-01-05T13:36:45;101576.53;;;5.84;100.00
8398;BME280;4236;54.504;9.588;2023-01-05T13:39:37;101576.28;;;5.87;100.00
8398;BME280;4236;54.504;9.588;2023-01-05T13:42:34;101583.94;;;5.81;100.00
8398;BME280;4236;54.504;9.588;2023-01-05T13:48:12;101599.75;;;5.63;100.00
8398;BME280;4236;54.504;9.588;2023-01-05T13:53:35;101614.66;;;5.64;100.00
8398;BME280;4236;54.504;9.588;2023-01-05T13:56:08;101611.72;;;5.57;100.00